sensor_id;sensor_type;location;lat;lon;timestamp;pressure;altitude;pressure_sealevel;temperature;humidity
21102;BME280;10709;49.006;12.100;2023-02-17T00:01:14;48875.34;;;-146.00;100.00
21102;BME280;10709;49.006;12.100;2023-02-17T00:03:41;48873.38;;;-146.00;100.00
21102;BME280;10709;49.006;12.100;2023-02-17T00:06:09;48871.41;;;-146.00;100.00
21102;BME280;10709;49.006;12.100;2023-02-17T00:08:36;48875.34;;;-146.00;100.00
21102;BME280;10709;49.006;12.100;2023-02-17T00:11:03;48871.41;;;-146.00;100.00
21102;BME280;10709;49.006;12.100;2023-02-17T00:13:29;48871.41;;;-146.00;100.00
21102;BME280;10709;49.006;12.100;2023-02-17T00:15:56;48879.25;;;-146.00;100.00
21102;BME280;10709;49.006;12.100;2023-02-17T00:18:22;48875.34;;;-146.00;100.00
21102;BME280;10709;49.006;12.100;2023-02-17T00:20:50;48879.25;;;-146.00;100.00
21102;BME280;10709;49.006;12.100;2023-02-17T00:23:16;48875.34;;;-146.00;100.00
21102;BME280;10709;49.006;12.100;2023-02-17T00:25:43;48881.22;;;-146.00;100.00
21102;BME280;10709;49.006;12.100;2023-02-17T00:28:09;48879.25;;;-146.00;100.00
21102;BME280;10709;49.006;12.100;2023-02-17T00:30:36;48881.22;;;-146.00;100.00
21102;BME280;10709;49.006;12.100;2023-02-17T00:33:03;48883.16;;;-146.00;100.00
21102;BME280;10709;49.006;12.100;2023-02-17T00:35:29;48891.00;;;-146.00;100.00
21102;BME280;10709;49.006;12.100;2023-02-17T00:37:56;48887.09;;;-146.00;100.00
21102;BME280;10709;49.006;12.100;2023-02-17T00:40:23;48885.13;;;-146.00;100.00
21102;BME280;10709;49.006;12.100;2023-02-17T00:42:49;48885.13;;;-146.00;100.00
21102;BME280;10709;49.006;12.100;2023-02-17T00:45:16;48883.16;;;-146.00;100.00
21102;BME280;10709;49.006;12.100;2023-02-17T00:47:42;48883.16;;;-146.00;100.00
21102;BME280;10709;49.006;12.100;2023-02-17T00:50:09;48881.22;;;-146.00;100.00
21102;BME280;10709;49.006;12.100;2023-02-17T00:52:36;48885.13;;;-146.00;100.00
21102;BME280;10709;49.006;12.100;2023-02-17T00:55:02;48887.09;;;-146.00;100.00
21102;BME280;10709;49.006;12.100;2023-02-17T00:57:29;48889.03;;;-146.00;100.00
21102;BME280;10709;49.006;12.100;2023-02-17T00:59:57;48894.91;;;-146.00;100.00
21102;BME280;10709;49.006;12.100;2023-02-17T01:02:24;48887.09;;;-146.00;100.00
21102;BME280;10709;49.006;12.100;2023-02-17T01:04:50;48887.09;;;-146.00;100.00
21102;BME280;10709;49.006;12.100;2023-02-17T01:07:17;48891.00;;;-146.00;100.00
21102;BME280;10709;49.006;12.100;2023-02-17T01:09:43;48885.13;;;-146.00;100.00
21102;BME280;10709;49.006;12.100;2023-02-17T01:12:11;48883.16;;;-146.00;100.00
21102;BME280;10709;49.006;12.100;2023-02-17T01:14:37;48879.25;;;-146.00;100.00
21102;BME280;10709;49.006;12.100;2023-02-17T01:17:04;48875.34;;;-146.00;100.00
21102;BME280;10709;49.006;12.100;2023-02-17T01:19:31;48871.41;;;-146.00;100.00
21102;BME280;10709;49.006;12.100;2023-02-17T01:21:57;48875.34;;;-146.00;100.00
21102;BME280;10709;49.006;12.100;2023-02-17T01:24:24;48871.41;;;-146.00;100.00
21102;BME280;10709;49.006;12.100;2023-02-17T01:26:50;48871.41;;;-146.00;100.00
21102;BME280;10709;49.006;12.100;2023-02-17T01:29:16;48867.50;;;-146.00;100.00
21102;BME280;10709;49.006;12.100;2023-02-17T01:31:43;48871.41;;;-146.00;100.00
21102;BME280;10709;49.006;12.100;2023-02-17T01:34:10;48873.38;;;-146.00;100.00
21102;BME280;10709;49.006;12.100;2023-02-17T01:36:37;48871.41;;;-146.00;100.00
21102;BME280;10709;49.006;12.100;2023-02-17T01:39:03;48871.41;;;-146.00;100.00
21102;BME280;10709;49.006;12.100;2023-02-17T01:41:30;48873.38;;;-146.00;100.00
21102;BME280;10709;49.006;12.100;2023-02-17T01:44:08;48879.25;;;-146.00;100.00
21102;BME280;10709;49.006;12.100;2023-02-17T01:46:35;48871.41;;;-146.00;100.00
21102;BME280;10709;49.006;12.100;2023-02-17T01:49:03;48879.25;;;-146.00;100.00
21102;BME280;10709;49.006;12.100;2023-02-17T01:51:37;48875.34;;;-146.00;100.00
21102;BME280;10709;49.006;12.100;2023-02-17T01:54:12;48879.25;;;-146.00;100.00
21102;BME280;10709;49.006;12.100;2023-02-17T01:56:42;48875.34;;;-146.00;100.00
21102;BME280;10709;49.006;12.100;2023-02-17T01:59:12;48875.34;;;-146.00;100.00
21102;BME280;10709;49.006;12.100;2023-02-17T02:01:42;48873.38;;;-146.00;100.00
21102;BME280;10709;49.006;12.100;2023-02-17T02:04:09;48879.25;;;-146.00;100.00
21102;BME280;10709;49.006;12.100;2023-02-17T02:06:39;48873.38;;;-146.00;100.00
21102;BME280;10709;49.006;12.100;2023-02-17T02:09:18;48869.44;;;-146.00;100.00
21102;BME280;10709;49.006;12.100;2023-02-17T02:11:49;48875.34;;;-146.00;100.00
21102;BME280;10709;49.006;12.100;2023-02-17T02:14:18;48871.41;;;-146.00;100.00
21102;BME280;10709;49.006;12.100;2023-02-17T02:17:17;48869.44;;;-146.00;100.00
21102;BME280;10709;49.006;12.100;2023-02-17T02:20:54;48867.50;;;-146.00;100.00
21102;BME280;10709;49.006;12.100;2023-02-17T02:23:22;48867.50;;;-146.00;100.00
21102;BME280;10709;49.006;12.100;2023-02-17T02:37:33;48871.41;;;-146.00;100.00
21102;BME280;10709;49.006;12.100;2023-02-17T02:40:05;48871.41;;;-146.00;100.00
21102;BME280;10709;49.006;12.100;2023-02-17T02:42:33;48867.50;;;-146.00;100.00
21102;BME280;10709;49.006;12.100;2023-02-17T02:45:00;48869.44;;;-146.00;100.00
21102;BME280;10709;49.006;12.100;2023-02-17T02:47:47;48867.50;;;-146.00;100.00
21102;BME280;10709;49.006;12.100;2023-02-17T02:50:21;48865.53;;;-146.00;100.00
21102;BME280;10709;49.006;12.100;2023-02-17T02:53:00;48865.53;;;-146.00;100.00
21102;BME280;10709;49.006;12.100;2023-02-17T02:55:51;48867.50;;;-146.00;100.00
21102;BME280;10709;49.006;12.100;2023-02-17T02:58:36;48871.41;;;-146.00;100.00
21102;BME280;10709;49.006;12.100;2023-02-17T03:01:20;48867.50;;;-146.00;100.00
21102;BME280;10709;49.006;12.100;2023-02-17T03:06:36;48865.53;;;-146.00;100.00
21102;BME280;10709;49.006;12.100;2023-02-17T03:09:10;48869.44;;;-146.00;100.00
21102;BME280;10709;49.006;12.100;2023-02-17T03:11:38;48871.41;;;-146.00;100.00
21102;BME280;10709;49.006;12.100;2023-02-17T03:14:11;48863.56;;;-146.00;100.00
21102;BME280;10709;49.006;12.100;2023-02-17T03:16:40;48863.56;;;-146.00;100.00
21102;BME280;10709;49.006;12.100;2023-02-17T03:19:08;48867.50;;;-146.00;100.00
21102;BME280;10709;49.006;12.100;2023-02-17T03:21:42;48867.50;;;-146.00;100.00
21102;BME280;10709;49.006;12.100;2023-02-17T03:24:11;48865.53;;;-146.00;100.00
21102;BME280;10709;49.006;12.100;2023-02-17T03:26:38;48869.44;;;-146.00;100.00
21102;BME280;10709;49.006;12.100;2023-02-17T03:29:04;48867.50;;;-146.00;100.00
21102;BME280;10709;49.006;12.100;2023-02-17T03:31:31;48867.50;;;-146.00;100.00
21102;BME280;10709;49.006;12.100;2023-02-17T03:33:58;48863.56;;;-146.00;100.00
21102;BME280;10709;49.006;12.100;2023-02-17T03:36:25;48865.53;;;-146.00;100.00
21102;BME280;10709;49.006;12.100;2023-02-17T03:38:51;48867.50;;;-146.00;100.00
21102;BME280;10709;49.006;12.100;2023-02-17T03:41:18;48867.50;;;-146.00;100.00
21102;BME280;10709;49.006;12.100;2023-02-17T03:43:44;48865.53;;;-146.00;100.00
21102;BME280;10709;49.006;12.100;2023-02-17T03:46:12;48863.56;;;-146.00;100.00
21102;BME280;10709;49.006;12.100;2023-02-17T03:48:40;48863.56;;;-146.00;100.00
21102;BME280;10709;49.006;12.100;2023-02-17T03:51:20;48863.56;;;-146.00;100.00
21102;BME280;10709;49.006;12.100;2023-02-17T03:53:48;48863.56;;;-146.00;100.00
21102;BME280;10709;49.006;12.100;2023-02-17T03:56:15;48863.56;;;-146.00;100.00
21102;BME280;10709;49.006;12.100;2023-02-17T03:58:42;48863.56;;;-146.00;100.00
21102;BME280;10709;49.006;12.100;2023-02-17T04:01:10;48859.66;;;-146.00;100.00
21102;BME280;10709;49.006;12.100;2023-02-17T04:03:37;48863.56;;;-146.00;100.00
21102;BME280;10709;49.006;12.100;2023-02-17T04:06:05;48863.56;;;-146.00;100.00
21102;BME280;10709;49.006;12.100;2023-02-17T04:08:32;48865.53;;;-146.00;100.00
21102;BME280;10709;49.006;12.100;2023-02-17T04:11:00;48867.50;;;-146.00;100.00
21102;BME280;10709;49.006;12.100;2023-02-17T04:13:27;48865.53;;;-146.00;100.00
21102;BME280;10709;49.006;12.100;2023-02-17T04:15:54;48859.66;;;-146.00;100.00
21102;BME280;10709;49.006;12.100;2023-02-17T04:18:21;48863.56;;;-146.00;100.00
21102;BME280;10709;49.006;12.100;2023-02-17T04:20:49;48863.56;;;-146.00;100.00
21102;BME280;10709;49.006;12.100;2023-02-17T04:23:16;48865.53;;;-146.00;100.00
21102;BME280;10709;49.006;12.100;2023-02-17T04:25:43;48863.56;;;-146.00;100.00
21102;BME280;10709;49.006;12.100;2023-02-17T04:28:11;48859.66;;;-146.00;100.00
21102;BME280;10709;49.006;12.100;2023-02-17T04:30:38;48859.66;;;-146.00;100.00
21102;BME280;10709;49.006;12.100;2023-02-17T04:33:04;48863.56;;;-146.00;100.00
21102;BME280;10709;49.006;12.100;2023-02-17T04:35:31;48863.56;;;-146.00;100.00
21102;BME280;10709;49.006;12.100;2023-02-17T04:37:57;48863.56;;;-146.00;100.00
21102;BME280;10709;49.006;12.100;2023-02-17T04:40:24;48861.63;;;-146.00;100.00
21102;BME280;10709;49.006;12.100;2023-02-17T04:42:50;48863.56;;;-146.00;100.00
21102;BME280;10709;49.006;12.100;2023-02-17T04:45:17;48863.56;;;-146.00;100.00
21102;BME280;10709;49.006;12.100;2023-02-17T04:47:43;48861.63;;;-146.00;100.00
21102;BME280;10709;49.006;12.100;2023-02-17T04:50:10;48863.56;;;-146.00;100.00
21102;BME280;10709;49.006;12.100;2023-02-17T04:52:37;48861.63;;;-146.00;100.00
21102;BME280;10709;49.006;12.100;2023-02-17T04:55:04;48859.66;;;-146.00;100.00
21102;BME280;10709;49.006;12.100;2023-02-17T04:57:31;48859.66;;;-146.00;100.00
21102;BME280;10709;49.006;12.100;2023-02-17T04:59:58;48859.66;;;-146.00;100.00
21102;BME280;10709;49.006;12.100;2023-02-17T05:02:25;48863.56;;;-146.00;100.00
21102;BME280;10709;49.006;12.100;2023-02-17T05:04:52;48863.56;;;-146.00;100.00
21102;BME280;10709;49.006;12.100;2023-02-17T05:07:19;48861.63;;;-146.00;100.00
21102;BME280;10709;49.006;12.100;2023-02-17T05:09:46;48863.56;;;-146.00;100.00
21102;BME280;10709;49.006;12.100;2023-02-17T05:12:12;48863.56;;;-146.00;100.00
21102;BME280;10709;49.006;12.100;2023-02-17T05:14:39;48867.50;;;-146.00;100.00
21102;BME280;10709;49.006;12.100;2023-02-17T05:17:05;48863.56;;;-146.00;100.00
21102;BME280;10709;49.006;12.100;2023-02-17T05:19:32;48865.53;;;-146.00;100.00
21102;BME280;10709;49.006;12.100;2023-02-17T05:21:58;48859.66;;;-146.00;100.00
21102;BME280;10709;49.006;12.100;2023-02-17T05:24:25;48861.63;;;-146.00;100.00
21102;BME280;10709;49.006;12.100;2023-02-17T05:26:52;48863.56;;;-146.00;100.00
21102;BME280;10709;49.006;12.100;2023-02-17T05:29:18;48863.56;;;-146.00;100.00
21102;BME280;10709;49.006;12.100;2023-02-17T05:31:45;48865.53;;;-146.00;100.00
21102;BME280;10709;49.006;12.100;2023-02-17T05:34:12;48863.56;;;-146.00;100.00
21102;BME280;10709;49.006;12.100;2023-02-17T05:36:38;48859.66;;;-146.00;100.00
21102;BME280;10709;49.006;12.100;2023-02-17T05:39:05;48859.66;;;-146.00;100.00
21102;BME280;10709;49.006;12.100;2023-02-17T05:41:31;48863.56;;;-146.00;100.00
21102;BME280;10709;49.006;12.100;2023-02-17T05:43:58;48863.56;;;-146.00;100.00
21102;BME280;10709;49.006;12.100;2023-02-17T05:46:24;48865.53;;;-146.00;100.00
21102;BME280;10709;49.006;12.100;2023-02-17T05:48:51;48863.56;;;-146.00;100.00
21102;BME280;10709;49.006;12.100;2023-02-17T05:51:17;48861.63;;;-146.00;100.00
21102;BME280;10709;49.006;12.100;2023-02-17T05:53:44;48863.56;;;-146.00;100.00
21102;BME280;10709;49.006;12.100;2023-02-17T05:56:10;48865.53;;;-146.00;100.00
21102;BME280;10709;49.006;12.100;2023-02-17T05:58:37;48867.50;;;-146.00;100.00
21102;BME280;10709;49.006;12.100;2023-02-17T06:01:10;48863.56;;;-146.00;100.00
21102;BME280;10709;49.006;12.100;2023-02-17T06:03:37;48859.66;;;-146.00;100.00
21102;BME280;10709;49.006;12.100;2023-02-17T06:06:04;48863.56;;;-146.00;100.00
21102;BME280;10709;49.006;12.100;2023-02-17T06:08:33;48863.56;;;-146.00;100.00
21102;BME280;10709;49.006;12.100;2023-02-17T06:11:00;48855.75;;;-146.00;100.00
21102;BME280;10709;49.006;12.100;2023-02-17T06:13:27;48867.50;;;-146.00;100.00
21102;BME280;10709;49.006;12.100;2023-02-17T06:15:53;48863.56;;;-146.00;100.00
21102;BME280;10709;49.006;12.100;2023-02-17T06:18:20;48861.63;;;-146.00;100.00
21102;BME280;10709;49.006;12.100;2023-02-17T06:20:46;48865.53;;;-146.00;100.00
21102;BME280;10709;49.006;12.100;2023-02-17T06:23:12;48867.50;;;-146.00;100.00
21102;BME280;10709;49.006;12.100;2023-02-17T06:25:39;48863.56;;;-146.00;100.00
21102;BME280;10709;49.006;12.100;2023-02-17T06:28:05;48859.66;;;-146.00;100.00
21102;BME280;10709;49.006;12.100;2023-02-17T06:30:32;48859.66;;;-146.00;100.00
21102;BME280;10709;49.006;12.100;2023-02-17T06:32:59;48861.63;;;-146.00;100.00
21102;BME280;10709;49.006;12.100;2023-02-17T06:35:25;48861.63;;;-146.00;100.00
21102;BME280;10709;49.006;12.100;2023-02-17T06:37:52;48857.69;;;-146.00;100.00
21102;BME280;10709;49.006;12.100;2023-02-17T06:40:18;48859.66;;;-146.00;100.00
21102;BME280;10709;49.006;12.100;2023-02-17T06:42:45;48855.75;;;-146.00;100.00
21102;BME280;10709;49.006;12.100;2023-02-17T06:45:11;48861.63;;;-146.00;100.00
21102;BME280;10709;49.006;12.100;2023-02-17T06:47:38;48861.63;;;-146.00;100.00
21102;BME280;10709;49.006;12.100;2023-02-17T06:50:05;48859.66;;;-146.00;100.00
21102;BME280;10709;49.006;12.100;2023-02-17T06:52:32;48857.69;;;-146.00;100.00
21102;BME280;10709;49.006;12.100;2023-02-17T06:54:58;48859.66;;;-146.00;100.00
21102;BME280;10709;49.006;12.100;2023-02-17T06:57:24;48863.56;;;-146.00;100.00
21102;BME280;10709;49.006;12.100;2023-02-17T06:59:51;48861.63;;;-146.00;100.00
21102;BME280;10709;49.006;12.100;2023-02-17T07:02:18;48859.66;;;-146.00;100.00
21102;BME280;10709;49.006;12.100;2023-02-17T07:04:44;48855.75;;;-146.00;100.00
21102;BME280;10709;49.006;12.100;2023-02-17T07:07:11;48859.66;;;-146.00;100.00
21102;BME280;10709;49.006;12.100;2023-02-17T07:09:38;48857.69;;;-146.00;100.00
21102;BME280;10709;49.006;12.100;2023-02-17T07:12:05;48859.66;;;-146.00;100.00
21102;BME280;10709;49.006;12.100;2023-02-17T07:14:33;48863.56;;;-146.00;100.00
21102;BME280;10709;49.006;12.100;2023-02-17T07:17:01;48857.69;;;-146.00;100.00
21102;BME280;10709;49.006;12.100;2023-02-17T07:19:27;48863.56;;;-146.00;100.00
21102;BME280;10709;49.006;12.100;2023-02-17T07:21:54;48859.66;;;-146.00;100.00
21102;BME280;10709;49.006;12.100;2023-02-17T07:24:20;48859.66;;;-146.00;100.00
21102;BME280;10709;49.006;12.100;2023-02-17T07:26:47;48859.66;;;-146.00;100.00
21102;BME280;10709;49.006;12.100;2023-02-17T07:29:14;48853.78;;;-146.00;100.00
21102;BME280;10709;49.006;12.100;2023-02-17T07:31:40;48859.66;;;-146.00;100.00
21102;BME280;10709;49.006;12.100;2023-02-17T07:34:07;48857.69;;;-146.00;100.00
21102;BME280;10709;49.006;12.100;2023-02-17T07:36:33;48855.75;;;-146.00;100.00
21102;BME280;10709;49.006;12.100;2023-02-17T07:39:01;48863.56;;;-146.00;100.00
21102;BME280;10709;49.006;12.100;2023-02-17T07:41:28;48859.66;;;-146.00;100.00
21102;BME280;10709;49.006;12.100;2023-02-17T07:43:56;48859.66;;;-146.00;100.00
21102;BME280;10709;49.006;12.100;2023-02-17T07:46:24;48855.75;;;-146.00;100.00
21102;BME280;10709;49.006;12.100;2023-02-17T07:48:50;48861.63;;;-146.00;100.00
21102;BME280;10709;49.006;12.100;2023-02-17T07:51:20;48859.66;;;-146.00;100.00
21102;BME280;10709;49.006;12.100;2023-02-17T07:53:48;48855.75;;;-146.00;100.00
21102;BME280;10709;49.006;12.100;2023-02-17T07:56:17;48855.75;;;-146.00;100.00
21102;BME280;10709;49.006;12.100;2023-02-17T07:58:44;48859.66;;;-146.00;100.00
21102;BME280;10709;49.006;12.100;2023-02-17T08:01:19;48855.75;;;-146.00;100.00
21102;BME280;10709;49.006;12.100;2023-02-17T08:03:47;48859.66;;;-146.00;100.00
21102;BME280;10709;49.006;12.100;2023-02-17T08:06:15;48855.75;;;-146.00;100.00
21102;BME280;10709;49.006;12.100;2023-02-17T08:08:43;48855.75;;;-146.00;100.00
21102;BME280;10709;49.006;12.100;2023-02-17T08:11:28;48861.63;;;-146.00;100.00
21102;BME280;10709;49.006;12.100;2023-02-17T08:14:15;48855.75;;;-146.00;100.00
21102;BME280;10709;49.006;12.100;2023-02-17T08:16:42;48855.75;;;-146.00;100.00
21102;BME280;10709;49.006;12.100;2023-02-17T08:19:08;48855.75;;;-146.00;100.00
21102;BME280;10709;49.006;12.100;2023-02-17T08:21:35;48857.69;;;-146.00;100.00
21102;BME280;10709;49.006;12.100;2023-02-17T08:24:01;48859.66;;;-146.00;100.00
21102;BME280;10709;49.006;12.100;2023-02-17T08:26:28;48859.66;;;-146.00;100.00
21102;BME280;10709;49.006;12.100;2023-02-17T08:28:55;48855.75;;;-146.00;100.00
21102;BME280;10709;49.006;12.100;2023-02-17T08:31:24;48857.69;;;-146.00;100.00
21102;BME280;10709;49.006;12.100;2023-02-17T08:33:51;48859.66;;;-146.00;100.00
21102;BME280;10709;49.006;12.100;2023-02-17T08:36:18;48859.66;;;-146.00;100.00
21102;BME280;10709;49.006;12.100;2023-02-17T08:38:48;48855.75;;;-146.00;100.00
21102;BME280;10709;49.006;12.100;2023-02-17T08:41:25;48859.66;;;-146.00;100.00
21102;BME280;10709;49.006;12.100;2023-02-17T08:43:55;48855.75;;;-146.00;100.00
21102;BME280;10709;49.006;12.100;2023-02-17T08:46:22;48861.63;;;-146.00;100.00
21102;BME280;10709;49.006;12.100;2023-02-17T08:48:49;48855.75;;;-146.00;100.00
21102;BME280;10709;49.006;12.100;2023-02-17T08:51:21;48855.75;;;-146.00;100.00
21102;BME280;10709;49.006;12.100;2023-02-17T08:53:49;48859.66;;;-146.00;100.00
21102;BME280;10709;49.006;12.100;2023-02-17T08:56:16;48855.75;;;-146.00;100.00
21102;BME280;10709;49.006;12.100;2023-02-17T08:58:42;48853.78;;;-146.00;100.00
21102;BME280;10709;49.006;12.100;2023-02-17T09:01:09;48855.75;;;-146.00;100.00
21102;BME280;10709;49.006;12.100;2023-02-17T09:03:36;48859.66;;;-146.00;100.00
21102;BME280;10709;49.006;12.100;2023-02-17T09:06:04;48857.69;;;-146.00;100.00
21102;BME280;10709;49.006;12.100;2023-02-17T09:08:31;48853.78;;;-146.00;100.00
21102;BME280;10709;49.006;12.100;2023-02-17T09:10:58;48855.75;;;-146.00;100.00
21102;BME280;10709;49.006;12.100;2023-02-17T09:13:25;48855.75;;;-146.00;100.00
21102;BME280;10709;49.006;12.100;2023-02-17T09:15:52;48853.78;;;-146.00;100.00
21102;BME280;10709;49.006;12.100;2023-02-17T09:18:20;48851.81;;;-146.00;100.00
21102;BME280;10709;49.006;12.100;2023-02-17T09:20:47;48855.75;;;-146.00;100.00
21102;BME280;10709;49.006;12.100;2023-02-17T09:23:14;48851.81;;;-146.00;100.00
21102;BME280;10709;49.006;12.100;2023-02-17T09:25:42;48853.78;;;-146.00;100.00
21102;BME280;10709;49.006;12.100;2023-02-17T09:28:09;48855.75;;;-146.00;100.00
21102;BME280;10709;49.006;12.100;2023-02-17T09:30:36;48857.69;;;-146.00;100.00
21102;BME280;10709;49.006;12.100;2023-02-17T09:33:02;48855.75;;;-146.00;100.00
21102;BME280;10709;49.006;12.100;2023-02-17T09:35:31;48851.81;;;-146.00;100.00
21102;BME280;10709;49.006;12.100;2023-02-17T09:37:58;48851.81;;;-146.00;100.00
21102;BME280;10709;49.006;12.100;2023-02-17T09:40:47;48851.81;;;-146.00;100.00
21102;BME280;10709;49.006;12.100;2023-02-17T09:43:23;48851.81;;;-146.00;100.00
21102;BME280;10709;49.006;12.100;2023-02-17T09:45:58;48851.81;;;-146.00;100.00
21102;BME280;10709;49.006;12.100;2023-02-17T09:48:29;48855.75;;;-146.00;100.00
21102;BME280;10709;49.006;12.100;2023-02-17T09:51:03;48855.75;;;-146.00;100.00
21102;BME280;10709;49.006;12.100;2023-02-17T09:53:40;48851.81;;;-146.00;100.00
21102;BME280;10709;49.006;12.100;2023-02-17T09:56:11;48853.78;;;-146.00;100.00
21102;BME280;10709;49.006;12.100;2023-02-17T09:58:48;48851.81;;;-146.00;100.00
21102;BME280;10709;49.006;12.100;2023-02-17T10:01:19;48853.78;;;-146.00;100.00
21102;BME280;10709;49.006;12.100;2023-02-17T10:03:55;48851.81;;;-146.00;100.00
21102;BME280;10709;49.006;12.100;2023-02-17T10:06:27;48851.81;;;-146.00;100.00
21102;BME280;10709;49.006;12.100;2023-02-17T10:09:10;48855.75;;;-146.00;100.00
21102;BME280;10709;49.006;12.100;2023-02-17T10:11:51;48855.75;;;-146.00;100.00
21102;BME280;10709;49.006;12.100;2023-02-17T10:14:28;48857.69;;;-146.00;100.00
21102;BME280;10709;49.006;12.100;2023-02-17T10:20:21;48867.50;;;-146.00;100.00
21102;BME280;10709;49.006;12.100;2023-02-17T10:22:53;48867.50;;;-146.00;100.00
21102;BME280;10709;49.006;12.100;2023-02-17T10:25:50;48885.13;;;-146.00;100.00
21102;BME280;10709;49.006;12.100;2023-02-17T10:31:04;48908.63;;;-146.00;100.00
21102;BME280;10709;49.006;12.100;2023-02-17T10:33:36;48922.34;;;-146.00;100.00
21102;BME280;10709;49.006;12.100;2023-02-17T10:39:14;48938.03;;;-146.00;100.00
21102;BME280;10709;49.006;12.100;2023-02-17T10:41:42;48953.69;;;-146.00;100.00
21102;BME280;10709;49.006;12.100;2023-02-17T10:44:15;48953.69;;;-146.00;100.00
21102;BME280;10709;49.006;12.100;2023-02-17T10:46:43;48973.28;;;-146.00;100.00
21102;BME280;10709;49.006;12.100;2023-02-17T10:49:20;48969.38;;;-146.00;100.00
21102;BME280;10709;49.006;12.100;2023-02-17T10:51:48;48969.38;;;-146.00;100.00
21102;BME280;10709;49.006;12.100;2023-02-17T10:54:28;48985.03;;;-146.00;100.00
21102;BME280;10709;49.006;12.100;2023-02-17T10:57:00;48990.91;;;-146.00;100.00
21102;BME280;10709;49.006;12.100;2023-02-17T10:59:32;48996.78;;;-146.00;100.00
21102;BME280;10709;49.006;12.100;2023-02-17T11:02:42;49016.38;;;-146.00;100.00
21102;BME280;10709;49.006;12.100;2023-02-17T11:05:18;49034.00;;;-146.00;100.00
21102;BME280;10709;49.006;12.100;2023-02-17T11:07:45;49051.66;;;-146.00;100.00
21102;BME280;10709;49.006;12.100;2023-02-17T11:12:57;49051.66;;;-146.00;100.00
21102;BME280;10709;49.006;12.100;2023-02-17T11:15:34;49079.06;;;-146.00;100.00
21102;BME280;10709;49.006;12.100;2023-02-17T11:18:09;49073.19;;;-146.00;100.00
21102;BME280;10709;49.006;12.100;2023-02-17T11:20:37;49081.03;;;-146.00;100.00
21102;BME280;10709;49.006;12.100;2023-02-17T11:23:21;49075.16;;;-146.00;100.00
21102;BME280;10709;49.006;12.100;2023-02-17T11:25:57;49075.16;;;-146.00;100.00
21102;BME280;10709;49.006;12.100;2023-02-17T11:28:25;49084.94;;;-146.00;100.00
21102;BME280;10709;49.006;12.100;2023-02-17T11:30:54;49086.91;;;-146.00;100.00
21102;BME280;10709;49.006;12.100;2023-02-17T11:33:31;49075.16;;;-146.00;100.00
21102;BME280;10709;49.006;12.100;2023-02-17T11:35:58;49077.13;;;-146.00;100.00
21102;BME280;10709;49.006;12.100;2023-02-17T11:38:28;49088.88;;;-146.00;100.00
21102;BME280;10709;49.006;12.100;2023-02-17T11:43:27;49075.16;;;-146.00;100.00
21102;BME280;10709;49.006;12.100;2023-02-17T11:46:17;49063.41;;;-146.00;100.00
21102;BME280;10709;49.006;12.100;2023-02-17T11:49:00;49079.06;;;-146.00;100.00
21102;BME280;10709;49.006;12.100;2023-02-17T11:51:34;49077.13;;;-146.00;100.00
21102;BME280;10709;49.006;12.100;2023-02-17T11:54:52;49081.03;;;-146.00;100.00
21102;BME280;10709;49.006;12.100;2023-02-17T11:57:44;49100.63;;;-146.00;99.41
21102;BME280;10709;49.006;12.100;2023-02-17T12:00:18;49102.59;;;-146.00;99.01
21102;BME280;10709;49.006;12.100;2023-02-17T12:08:35;49090.81;;;-146.00;100.00
21102;BME280;10709;49.006;12.100;2023-02-17T12:11:12;49071.25;;;-146.00;100.00
21102;BME280;10709;49.006;12.100;2023-02-17T12:19:44;49086.91;;;-146.00;100.00
21102;BME280;10709;49.006;12.100;2023-02-17T12:22:23;49088.88;;;-146.00;100.00
21102;BME280;10709;49.006;12.100;2023-02-17T12:25:14;49075.16;;;-146.00;100.00
21102;BME280;10709;49.006;12.100;2023-02-17T12:30:35;49075.16;;;-146.00;100.00
21102;BME280;10709;49.006;12.100;2023-02-17T12:36:00;49102.59;;;-146.00;100.00
21102;BME280;10709;49.006;12.100;2023-02-17T12:38:38;49094.75;;;-146.00;99.34
21102;BME280;10709;49.006;12.100;2023-02-17T12:41:19;49118.25;;;-146.00;99.98
21102;BME280;10709;49.006;12.100;2023-02-17T12:43:54;49090.81;;;-146.00;100.00
21102;BME280;10709;49.006;12.100;2023-02-17T12:46:28;49086.91;;;-146.00;99.53
21102;BME280;10709;49.006;12.100;2023-02-17T12:49:20;49106.50;;;-146.00;99.67
21102;BME280;10709;49.006;12.100;2023-02-17T12:52:04;49090.81;;;-146.00;100.00
21102;BME280;10709;49.006;12.100;2023-02-17T12:54:39;49096.72;;;-146.00;100.00
21102;BME280;10709;49.006;12.100;2023-02-17T12:57:21;49071.25;;;-146.00;100.00
21102;BME280;10709;49.006;12.100;2023-02-17T12:59:51;49098.66;;;-146.00;100.00
21102;BME280;10709;49.006;12.100;2023-02-17T13:02:23;49073.19;;;-146.00;100.00
21102;BME280;10709;49.006;12.100;2023-02-17T13:04:52;49073.19;;;-146.00;100.00
21102;BME280;10709;49.006;12.100;2023-02-17T13:07:38;49063.41;;;-146.00;100.00
21102;BME280;10709;49.006;12.100;2023-02-17T13:13:02;49039.88;;;-146.00;100.00
21102;BME280;10709;49.006;12.100;2023-02-17T13:15:40;49034.00;;;-146.00;100.00
21102;BME280;10709;49.006;12.100;2023-02-17T13:24:04;49006.59;;;-146.00;100.00
21102;BME280;10709;49.006;12.100;2023-02-17T13:26:41;48996.78;;;-146.00;100.00
21102;BME280;10709;49.006;12.100;2023-02-17T13:29:19;48979.16;;;-146.00;100.00
21102;BME280;10709;49.006;12.100;2023-02-17T13:31:58;48949.78;;;-146.00;100.00